createdAt,value
2023-04-02T00:01:39.158Z,6.70
2023-04-02T00:04:16.196Z,6.55
2023-04-02T00:06:46.274Z,7.57
2023-04-02T00:09:15.449Z,7.03
2023-04-02T00:11:44.554Z,7.40
2023-04-02T00:14:24.162Z,7.82
2023-04-02T00:16:52.322Z,7.90
2023-04-02T00:19:28.166Z,7.20
2023-04-02T00:21:57.097Z,6.60
2023-04-02T00:24:23.489Z,6.60
2023-04-02T00:26:52.844Z,6.10
2023-04-02T00:29:19.924Z,6.95
2023-04-02T00:31:52.939Z,6.75
2023-04-02T00:34:27.564Z,5.97
2023-04-02T00:36:54.965Z,6.28
2023-04-02T00:39:27.397Z,6.25
2023-04-02T00:42:04.824Z,5.85
2023-04-02T00:44:34.170Z,6.97
2023-04-02T00:47:18.810Z,6.80
2023-04-02T00:49:46.013Z,4.97
2023-04-02T00:52:18.424Z,5.65
2023-04-02T00:54:50.455Z,5.78
2023-04-02T00:57:25.563Z,5.38
2023-04-02T01:00:19.204Z,5.05
2023-04-02T01:03:16.277Z,5.18
2023-04-02T01:05:45.298Z,5.50
2023-04-02T01:08:31.359Z,4.65
2023-04-02T01:11:52.061Z,5.38
2023-04-02T01:14:56.420Z,5.17
2023-04-02T01:17:42.922Z,5.10
2023-04-02T01:20:43.416Z,5.57
2023-04-02T01:23:25.506Z,5.20
2023-04-02T01:26:03.169Z,5.07
2023-04-02T01:28:56.217Z,5.00
2023-04-02T01:31:23.685Z,4.95
2023-04-02T01:33:50.283Z,5.20
2023-04-02T01:36:45.652Z,5.65
2023-04-02T01:39:35.114Z,4.55
2023-04-02T01:42:07.901Z,4.68
2023-04-02T01:44:53.032Z,5.15
2023-04-02T01:47:25.597Z,5.35
2023-04-02T01:50:23.929Z,5.40
2023-04-02T01:52:55.446Z,4.38
2023-04-02T01:55:31.304Z,4.65
2023-04-02T01:58:00.142Z,4.47
2023-04-02T02:00:28.461Z,4.97
2023-04-02T02:02:56.641Z,5.68
2023-04-02T02:05:23.628Z,5.57
2023-04-02T02:07:52.625Z,4.78
2023-04-02T02:10:26.056Z,5.40
2023-04-02T02:12:52.483Z,4.68
2023-04-02T02:15:22.498Z,4.68
2023-04-02T02:17:49.910Z,5.10
2023-04-02T02:20:17.653Z,5.13
2023-04-02T02:22:47.454Z,4.43
2023-04-02T02:25:24.411Z,4.07
2023-04-02T02:28:10.934Z,4.60
2023-04-02T02:30:48.004Z,4.47
2023-04-02T02:33:21.664Z,3.83
2023-04-02T02:36:04.838Z,4.82
2023-04-02T02:38:35.250Z,4.15
2023-04-02T02:41:36.607Z,4.18
2023-04-02T02:44:12.227Z,4.40
2023-04-02T02:46:54.469Z,4.10
2023-04-02T02:49:47.191Z,3.60
2023-04-02T02:52:17.766Z,3.88
2023-04-02T02:55:04.479Z,4.30
2023-04-02T02:57:50.749Z,4.45
2023-04-02T03:00:19.863Z,3.63
2023-04-02T03:02:47.789Z,4.20
2023-04-02T03:05:22.418Z,3.88
2023-04-02T03:07:54.991Z,3.20
2023-04-02T03:10:37.138Z,4.05
2023-04-02T03:13:12.529Z,4.70
2023-04-02T03:15:53.996Z,3.92
2023-04-02T03:18:36.010Z,3.90
2023-04-02T03:21:26.533Z,4.68
2023-04-02T03:23:59.394Z,3.65
2023-04-02T03:26:41.266Z,4.13
2023-04-02T03:29:19.012Z,4.38
2023-04-02T03:31:52.630Z,4.28
2023-04-02T03:34:32.792Z,3.83
2023-04-02T03:37:24.779Z,4.13
2023-04-02T03:40:00.100Z,3.72
2023-04-02T03:42:30.674Z,4.22
2023-04-02T03:45:04.964Z,3.92
2023-04-02T03:47:37.892Z,3.92
2023-04-02T03:50:13.246Z,3.97
2023-04-02T03:52:40.293Z,4.03
2023-04-02T03:55:21.543Z,4.22
2023-04-02T03:58:13.879Z,3.88
2023-04-02T04:00:57.277Z,4.53
2023-04-02T04:03:41.753Z,3.80
2023-04-02T04:06:24.615Z,3.22
2023-04-02T04:08:58.672Z,3.35
2023-04-02T04:11:30.384Z,3.20
2023-04-02T04:14:03.258Z,4.43
2023-04-02T04:16:35.936Z,3.70
2023-04-02T04:19:18.098Z,3.90
2023-04-02T04:21:46.187Z,3.10
2023-04-02T04:24:22.584Z,3.28
2023-04-02T04:26:53.437Z,3.67
2023-04-02T04:29:29.503Z,3.67
2023-04-02T04:31:58.751Z,3.25
2023-04-02T04:34:46.677Z,3.67
2023-04-02T04:37:29.098Z,3.53
2023-04-02T04:40:11.824Z,3.20
2023-04-02T04:42:42.659Z,3.42
2023-04-02T04:45:23.561Z,3.42
2023-04-02T04:47:57.354Z,3.97
2023-04-02T04:50:32.778Z,4.20
2023-04-02T04:53:13.724Z,3.30
2023-04-02T04:55:44.347Z,3.22
2023-04-02T05:01:01.945Z,3.15
2023-04-02T05:03:31.323Z,3.40
2023-04-02T05:06:03.609Z,4.18
2023-04-02T05:08:36.181Z,3.47
2023-04-02T05:11:14.673Z,3.58
2023-04-02T05:13:54.181Z,4.32
2023-04-02T05:16:27.127Z,3.53
2023-04-02T05:19:03.734Z,3.80
2023-04-02T05:21:58.093Z,4.78
2023-04-02T05:24:42.892Z,3.65
2023-04-02T05:27:21.352Z,3.42
2023-04-02T05:29:54.742Z,2.55
2023-04-02T05:32:36.568Z,3.05
2023-04-02T05:35:06.582Z,3.35
2023-04-02T05:37:38.940Z,2.90
2023-04-02T05:40:14.612Z,2.67
2023-04-02T05:42:48.744Z,3.10
2023-04-02T05:45:28.590Z,2.65
2023-04-02T05:48:01.689Z,2.90
2023-04-02T05:50:40.302Z,2.80
2023-04-02T05:53:21.429Z,3.10
2023-04-02T05:55:59.956Z,2.38
2023-04-02T05:58:39.062Z,2.47
2023-04-02T06:01:25.317Z,2.33
2023-04-02T06:04:00.915Z,2.53
2023-04-02T06:06:41.407Z,2.10
2023-04-02T06:09:27.663Z,1.83
2023-04-02T06:12:04.627Z,2.70
2023-04-02T06:14:32.737Z,2.30
2023-04-02T06:16:59.752Z,2.05
2023-04-02T06:19:32.788Z,2.47
2023-04-02T06:22:10.604Z,2.25
2023-04-02T06:24:41.091Z,2.20
2023-04-02T06:27:14.763Z,2.85
2023-04-02T06:29:45.566Z,2.20
2023-04-02T06:32:16.481Z,2.20
2023-04-02T06:34:44.824Z,2.20
2023-04-02T06:37:23.398Z,2.30
2023-04-02T06:39:56.394Z,2.72
2023-04-02T06:42:28.340Z,3.03
2023-04-02T06:45:22.163Z,2.05
2023-04-02T06:48:02.599Z,2.22
2023-04-02T06:50:59.357Z,1.80
2023-04-02T06:53:38.557Z,2.10
2023-04-02T06:56:36.286Z,2.85
2023-04-02T06:59:04.691Z,2.50
2023-04-02T07:01:37.214Z,2.00
2023-04-02T07:04:04.568Z,2.08
2023-04-02T07:06:36.809Z,2.35
2023-04-02T07:09:04.735Z,2.65
2023-04-02T07:11:32.713Z,1.98
2023-04-02T07:14:02.217Z,2.67
2023-04-02T07:16:31.716Z,2.60
2023-04-02T07:19:01.111Z,2.00
2023-04-02T07:21:31.041Z,2.72
2023-04-02T07:23:57.536Z,1.83
2023-04-02T07:26:27.321Z,2.00
2023-04-02T07:28:55.655Z,2.05
2023-04-02T07:31:25.731Z,2.17
2023-04-02T07:33:55.056Z,2.23
2023-04-02T07:36:23.219Z,1.80
2023-04-02T07:38:50.335Z,2.33
2023-04-02T07:41:18.139Z,2.10
2023-04-02T07:43:44.560Z,2.08
2023-04-02T07:46:13.992Z,2.20
2023-04-02T07:48:40.661Z,2.17
2023-04-02T07:51:15.940Z,2.28
2023-04-02T07:53:42.464Z,2.13
2023-04-02T07:56:13.287Z,2.10
2023-04-02T07:58:39.761Z,2.58
2023-04-02T08:01:16.571Z,1.75
2023-04-02T08:03:43.073Z,2.20
2023-04-02T08:06:09.544Z,2.90
2023-04-02T08:08:35.940Z,1.90
2023-04-02T08:11:02.340Z,2.45
2023-04-02T08:13:31.958Z,1.70
2023-04-02T08:15:59.495Z,2.38
2023-04-02T08:18:26.075Z,1.98
2023-04-02T08:20:53.381Z,1.63
2023-04-02T08:23:21.584Z,1.88
2023-04-02T08:25:48.657Z,1.80
2023-04-02T08:28:15.086Z,3.10
2023-04-02T08:30:41.761Z,1.90
2023-04-02T08:33:08.297Z,2.20
2023-04-02T08:35:35.195Z,2.22
2023-04-02T08:38:01.941Z,2.05
2023-04-02T08:40:35.743Z,2.35
2023-04-02T08:43:16.811Z,1.98
2023-04-02T08:46:04.295Z,1.80
2023-04-02T08:48:33.514Z,2.15
2023-04-02T08:51:01.745Z,2.63
2023-04-02T08:53:33.672Z,1.95
2023-04-02T08:56:08.523Z,2.00
2023-04-02T08:58:43.709Z,2.72
2023-04-02T09:01:34.871Z,1.98
2023-04-02T09:04:05.913Z,1.77
2023-04-02T09:06:33.406Z,3.05
2023-04-02T09:09:00.266Z,1.80
2023-04-02T09:11:58.984Z,1.95
2023-04-02T09:14:42.574Z,2.05
2023-04-02T09:17:19.167Z,1.67
2023-04-02T09:20:01.535Z,2.03
2023-04-02T09:22:31.682Z,2.03
2023-04-02T09:25:00.937Z,1.73
2023-04-02T09:27:33.389Z,2.05
2023-04-02T09:30:06.618Z,2.15
2023-04-02T09:32:38.891Z,2.00
2023-04-02T09:35:18.354Z,2.10
2023-04-02T09:38:09.809Z,1.95
2023-04-02T09:40:48.181Z,2.30
2023-04-02T09:43:17.933Z,2.47
2023-04-02T09:45:55.278Z,2.20
2023-04-02T09:48:37.776Z,2.10
2023-04-02T09:51:21.903Z,2.10
2023-04-02T09:54:10.535Z,1.77
2023-04-02T09:56:38.644Z,1.80
2023-04-02T09:59:12.308Z,1.77
2023-04-02T10:01:43.689Z,2.05
2023-04-02T10:04:44.427Z,2.72
2023-04-02T10:07:31.154Z,1.40
2023-04-02T10:10:03.695Z,1.73
2023-04-02T10:12:38.567Z,1.90
2023-04-02T10:15:07.191Z,1.65
2023-04-02T10:17:37.938Z,1.70
2023-04-02T10:20:22.211Z,2.00
2023-04-02T10:22:48.818Z,2.17
2023-04-02T10:25:21.128Z,2.20
2023-04-02T10:27:56.977Z,1.75
2023-04-02T10:30:30.524Z,2.10
2023-04-02T10:33:20.086Z,1.52
2023-04-02T10:36:00.292Z,1.80
2023-04-02T10:38:51.198Z,2.00
2023-04-02T10:41:27.917Z,1.90
2023-04-02T10:44:16.789Z,1.92
2023-04-02T10:46:56.488Z,1.80
2023-04-02T10:49:32.945Z,1.50
2023-04-02T10:52:27.519Z,1.58
2023-04-02T10:54:56.501Z,1.80
2023-04-02T10:57:37.945Z,2.17
2023-04-02T11:00:21.001Z,2.30
2023-04-02T11:02:54.535Z,1.88
2023-04-02T11:05:31.434Z,2.30
2023-04-02T11:08:11.762Z,1.80
2023-04-02T11:10:44.529Z,1.73
2023-04-02T11:13:22.779Z,2.50
2023-04-02T11:15:49.652Z,1.77
2023-04-02T11:18:23.489Z,1.83
2023-04-02T11:20:49.832Z,1.70
2023-04-02T11:23:20.923Z,2.00
2023-04-02T11:28:29.456Z,1.65
2023-04-02T11:30:57.168Z,1.90
2023-04-02T11:33:45.604Z,1.52
2023-04-02T11:36:50.548Z,2.63
2023-04-02T11:39:55.065Z,1.73
2023-04-02T11:42:24.899Z,1.80
2023-04-02T11:44:52.470Z,1.70
2023-04-02T11:47:24.377Z,1.50
2023-04-02T11:50:04.100Z,1.80
2023-04-02T11:52:50.973Z,2.40
2023-04-02T11:56:06.837Z,1.98
2023-04-02T11:59:01.374Z,1.58
2023-04-02T12:01:54.128Z,1.50
2023-04-02T12:04:56.451Z,2.72
2023-04-02T12:07:35.062Z,2.13
2023-04-02T12:10:11.886Z,1.50
2023-04-02T12:12:39.361Z,1.92
2023-04-02T12:15:32.667Z,2.05
2023-04-02T12:18:25.707Z,1.98
2023-04-02T12:20:57.017Z,1.88
2023-04-02T12:23:32.309Z,2.53
2023-04-02T12:26:01.196Z,1.92
2023-04-02T12:28:29.884Z,1.50
2023-04-02T12:31:08.244Z,1.65
2023-04-02T12:33:37.607Z,2.03
2023-04-02T12:36:09.813Z,1.58
2023-04-02T12:38:44.760Z,1.90
2023-04-02T12:41:30.085Z,1.65
2023-04-02T12:44:04.826Z,2.00
2023-04-02T12:46:33.644Z,1.67
2023-04-02T12:49:08.955Z,2.40
2023-04-02T12:51:37.007Z,2.15
2023-04-02T12:54:04.335Z,2.05
2023-04-02T12:56:30.885Z,1.75
2023-04-02T12:58:58.849Z,2.10
2023-04-02T13:01:31.385Z,2.00
2023-04-02T13:04:09.223Z,2.50
2023-04-02T13:06:36.396Z,1.70
2023-04-02T13:09:06.542Z,1.60
2023-04-02T13:11:35.970Z,1.70
2023-04-02T13:14:05.756Z,1.48
2023-04-02T13:16:38.088Z,1.60
2023-04-02T13:19:28.012Z,1.35
2023-04-02T13:21:55.930Z,1.90
2023-04-02T13:24:25.045Z,1.98
2023-04-02T13:26:55.396Z,1.60
2023-04-02T13:29:34.570Z,1.95
2023-04-02T13:32:03.948Z,1.63
2023-04-02T13:34:30.838Z,2.38
2023-04-02T13:36:58.166Z,1.50
2023-04-02T13:39:25.317Z,1.90
2023-04-02T13:41:56.501Z,1.55
2023-04-02T13:44:31.451Z,1.65
2023-04-02T13:46:58.395Z,1.45
2023-04-02T13:49:26.293Z,1.77
2023-04-02T13:51:57.922Z,1.88
2023-04-02T13:54:45.652Z,1.42
2023-04-02T13:57:12.298Z,1.42
2023-04-02T13:59:38.783Z,1.45
2023-04-02T14:02:10.535Z,1.27
2023-04-02T14:04:44.797Z,1.92
2023-04-02T14:07:26.909Z,1.65
2023-04-02T14:10:24.523Z,1.17
2023-04-02T14:13:36.292Z,1.70
2023-04-02T14:16:24.146Z,1.85
2023-04-02T14:19:06.261Z,1.63
2023-04-02T14:22:01.201Z,1.45
2023-04-02T14:24:41.018Z,1.38
2023-04-02T14:27:31.620Z,2.35
2023-04-02T14:30:36.121Z,1.40
2023-04-02T14:33:17.938Z,1.95
2023-04-02T14:35:46.931Z,2.25
2023-04-02T14:38:21.392Z,1.33
2023-04-02T14:40:52.823Z,1.98
2023-04-02T14:43:26.070Z,1.83
2023-04-02T14:45:59.866Z,1.38
2023-04-02T14:48:48.873Z,1.40
2023-04-02T14:51:30.178Z,1.63
2023-04-02T14:54:04.168Z,1.48
2023-04-02T14:56:36.448Z,1.70
2023-04-02T14:59:19.666Z,1.52
2023-04-02T15:01:50.336Z,2.10
2023-04-02T15:04:30.929Z,1.88
2023-04-02T15:07:05.417Z,1.95
2023-04-02T15:09:37.176Z,1.80
2023-04-02T15:12:13.543Z,1.90
2023-04-02T15:14:47.561Z,2.00
2023-04-02T15:17:13.983Z,1.85
2023-04-02T15:19:40.383Z,1.45
2023-04-02T15:22:31.561Z,1.55
2023-04-02T15:27:57.916Z,1.83
2023-04-02T15:30:35.520Z,2.00
2023-04-02T15:33:28.387Z,2.20
2023-04-02T15:36:32.659Z,1.50
2023-04-02T15:39:22.129Z,1.60
2023-04-02T15:42:19.892Z,2.45
2023-04-02T15:45:09.480Z,2.25
2023-04-02T15:48:16.789Z,1.98
2023-04-02T15:50:53.852Z,1.60
2023-04-02T15:53:38.868Z,2.10
2023-04-02T15:56:30.811Z,1.52
2023-04-02T15:59:22.159Z,1.35
2023-04-02T16:02:23.073Z,2.00
2023-04-02T16:05:03.752Z,1.98
2023-04-02T16:07:55.036Z,1.70
2023-04-02T16:13:25.945Z,1.88
2023-04-02T16:16:14.435Z,2.28
2023-04-02T16:18:56.845Z,1.90
2023-04-02T16:21:28.953Z,2.00
2023-04-02T16:23:55.423Z,2.42
2023-04-02T16:26:46.738Z,1.70
2023-04-02T16:29:22.917Z,1.92
2023-04-02T16:32:02.921Z,1.85
2023-04-02T16:34:47.064Z,1.98
2023-04-02T16:37:58.169Z,1.83
2023-04-02T16:41:07.548Z,2.15
2023-04-02T16:43:55.240Z,1.55
2023-04-02T16:46:41.004Z,2.30
2023-04-02T16:49:30.276Z,1.33
2023-04-02T16:52:19.850Z,1.90
2023-04-02T16:55:05.621Z,1.83
2023-04-02T16:57:42.874Z,1.92
2023-04-02T17:00:38.917Z,1.52
2023-04-02T17:03:35.935Z,1.63
2023-04-02T17:06:14.657Z,2.00
2023-04-02T17:08:53.831Z,1.52
2023-04-02T17:11:29.038Z,1.50
2023-04-02T17:14:32.057Z,2.03
2023-04-02T17:17:03.032Z,1.90
2023-04-02T17:22:00.932Z,1.77
2023-04-02T17:24:39.150Z,1.75
2023-04-02T17:27:20.394Z,1.85
2023-04-02T17:29:52.596Z,1.98
2023-04-02T17:32:30.157Z,1.92
2023-04-02T17:34:57.667Z,2.03
2023-04-02T17:37:48.196Z,1.77
2023-04-02T17:40:26.121Z,1.40
2023-04-02T17:43:05.567Z,1.58
2023-04-02T17:45:42.971Z,1.80
2023-04-02T17:48:30.314Z,1.88
2023-04-02T17:51:14.886Z,2.28
2023-04-02T17:54:01.150Z,1.65
2023-04-02T17:56:27.577Z,2.05
2023-04-02T17:59:12.482Z,2.00
2023-04-02T18:02:18.165Z,2.13
2023-04-02T18:05:11.671Z,1.65
2023-04-02T18:07:59.543Z,2.60
2023-04-02T18:10:45.230Z,2.10
2023-04-02T18:13:39.752Z,2.53
2023-04-02T18:16:25.029Z,2.45
2023-04-02T18:19:09.092Z,2.72
2023-04-02T18:21:46.318Z,2.50
2023-04-02T18:24:46.478Z,3.25
2023-04-02T18:27:34.558Z,2.22
2023-04-02T18:30:16.179Z,2.10
2023-04-02T18:33:02.477Z,2.28
2023-04-02T18:36:06.873Z,1.77
2023-04-02T18:39:10.608Z,2.00
2023-04-02T18:41:53.431Z,2.33
2023-04-02T18:44:30.086Z,2.28
2023-04-02T18:47:09.711Z,2.92
2023-04-02T18:49:44.819Z,2.28
2023-04-02T18:52:13.728Z,2.35
2023-04-02T18:54:46.955Z,1.88
2023-04-02T18:57:22.833Z,1.95
2023-04-02T18:59:57.401Z,1.85
2023-04-02T19:02:44.096Z,2.58
2023-04-02T19:05:17.441Z,2.65
2023-04-02T19:07:44.904Z,2.60
2023-04-02T19:10:27.127Z,1.95
2023-04-02T19:12:53.537Z,2.22
2023-04-02T19:15:21.324Z,2.40
2023-04-02T19:18:15.333Z,2.60
2023-04-02T19:21:02.093Z,2.33
2023-04-02T19:23:58.076Z,2.22
2023-04-02T19:26:38.515Z,2.42
2023-04-02T19:29:24.620Z,1.93
2023-04-02T19:32:02.286Z,2.45
2023-04-02T19:35:08.334Z,2.17
2023-04-02T19:37:49.960Z,2.72
2023-04-02T19:40:36.746Z,2.25
2023-04-02T19:43:04.089Z,2.33
2023-04-02T19:45:35.757Z,2.63
2023-04-02T19:48:10.801Z,2.90
2023-04-02T19:50:37.306Z,2.10
2023-04-02T19:53:03.742Z,3.00
2023-04-02T19:55:30.461Z,2.05
2023-04-02T19:58:08.418Z,3.15
2023-04-02T20:00:43.330Z,2.63
2023-04-02T20:03:09.744Z,2.45
2023-04-02T20:05:36.273Z,2.20
2023-04-02T20:08:02.772Z,2.25
2023-04-02T20:10:29.183Z,2.10
2023-04-02T20:12:55.570Z,2.03
2023-04-02T20:15:21.977Z,3.38
2023-04-02T20:17:48.477Z,3.30
2023-04-02T20:20:16.261Z,2.30
2023-04-02T20:22:42.693Z,2.20
2023-04-02T20:25:09.176Z,2.42
2023-04-02T20:27:35.698Z,2.70
2023-04-02T20:30:02.793Z,2.45
2023-04-02T20:32:30.010Z,2.30
2023-04-02T20:34:56.505Z,2.38
2023-04-02T20:37:22.968Z,2.13
2023-04-02T20:39:49.504Z,2.00
2023-04-02T20:42:15.985Z,2.60
2023-04-02T20:44:42.421Z,2.10
2023-04-02T20:47:08.905Z,2.63
2023-04-02T20:49:35.313Z,2.30
2023-04-02T20:52:01.771Z,2.17
2023-04-02T20:54:28.180Z,2.30
2023-04-02T20:56:54.599Z,2.13
2023-04-02T20:59:21.005Z,2.47
2023-04-02T21:01:47.443Z,2.60
2023-04-02T21:04:14.170Z,2.10
2023-04-02T21:06:41.233Z,2.72
2023-04-02T21:09:14.451Z,2.55
2023-04-02T21:11:41.036Z,3.05
2023-04-02T21:14:07.628Z,2.10
2023-04-02T21:16:34.560Z,2.38
2023-04-02T21:19:05.994Z,2.63
2023-04-02T21:21:33.404Z,3.15
2023-04-02T21:24:01.763Z,2.25
2023-04-02T21:26:31.895Z,2.60
2023-04-02T21:28:59.814Z,2.45
2023-04-02T21:31:29.007Z,2.05
2023-04-02T21:33:57.316Z,1.98
2023-04-02T21:36:26.823Z,2.72
2023-04-02T21:39:34.199Z,2.70
2023-04-02T21:42:00.740Z,2.35
2023-04-02T21:44:27.217Z,2.60
2023-04-02T21:46:54.266Z,2.33
2023-04-02T21:49:26.200Z,2.75
2023-04-02T21:51:52.626Z,2.10
2023-04-02T21:54:19.567Z,2.45
2023-04-02T21:56:46.798Z,2.30
2023-04-02T21:59:15.666Z,1.92
2023-04-02T22:01:44.633Z,1.95
2023-04-02T22:04:16.532Z,2.33
2023-04-02T22:06:44.439Z,2.45
2023-04-02T22:09:17.617Z,2.55
2023-04-02T22:11:51.189Z,1.95
2023-04-02T22:14:18.866Z,2.33
2023-04-02T22:16:45.355Z,2.47
2023-04-02T22:19:14.507Z,1.92
2023-04-02T22:21:41.696Z,2.40
2023-04-02T22:24:10.927Z,2.95
2023-04-02T22:26:37.968Z,2.45
2023-04-02T22:29:04.994Z,2.97
2023-04-02T22:31:35.921Z,1.98
2023-04-02T22:34:04.174Z,2.53
2023-04-02T22:36:30.921Z,2.33
2023-04-02T22:38:58.967Z,2.10
2023-04-02T22:41:27.931Z,2.03
2023-04-02T22:43:58.570Z,2.20
2023-04-02T22:46:26.513Z,2.50
2023-04-02T22:48:53.221Z,2.38
2023-04-02T22:51:21.691Z,2.63
2023-04-02T22:53:48.917Z,2.15
2023-04-02T22:56:18.096Z,2.30
2023-04-02T22:58:44.742Z,2.85
2023-04-02T23:01:21.414Z,2.90
2023-04-02T23:03:48.542Z,3.53
2023-04-02T23:06:16.963Z,2.40
2023-04-02T23:08:43.894Z,2.38
2023-04-02T23:11:22.756Z,2.00
2023-04-02T23:13:50.831Z,2.15
2023-04-02T23:16:18.133Z,2.88
2023-04-02T23:18:47.911Z,2.50
2023-04-02T23:21:14.701Z,2.35
2023-04-02T23:23:41.111Z,2.60
2023-04-02T23:26:16.164Z,2.22
2023-04-02T23:28:43.165Z,1.95
2023-04-02T23:31:12.990Z,2.00
2023-04-02T23:33:39.427Z,2.05
2023-04-02T23:36:10.320Z,2.53
2023-04-02T23:38:36.844Z,2.15
2023-04-02T23:41:03.354Z,2.28
2023-04-02T23:43:29.777Z,2.33
2023-04-02T23:45:56.186Z,2.58
2023-04-02T23:48:22.629Z,2.10
2023-04-02T23:50:49.085Z,2.78
2023-04-02T23:53:16.418Z,2.60
2023-04-02T23:55:42.796Z,2.63
2023-04-02T23:58:09.220Z,2.08
